sensor_id;sensor_type;location;lat;lon;timestamp;pressure;altitude;pressure_sealevel;temperature;humidity
39491;BME280;25175;50.140;18.990;2023-04-08T00:01:26;98637.34;;;3.76;68.22
39491;BME280;25175;50.140;18.990;2023-04-08T00:04:31;98628.75;;;3.68;68.13
39491;BME280;25175;50.140;18.990;2023-04-08T00:07:38;98632.03;;;3.70;68.20
39491;BME280;25175;50.140;18.990;2023-04-08T00:10:44;98649.38;;;3.69;68.06
39491;BME280;25175;50.140;18.990;2023-04-08T00:13:49;98645.63;;;3.72;68.15
39491;BME280;25175;50.140;18.990;2023-04-08T00:16:53;98654.06;;;3.74;67.90
39491;BME280;25175;50.140;18.990;2023-04-08T00:19:58;98648.06;;;3.73;68.00
39491;BME280;25175;50.140;18.990;2023-04-08T00:23:05;98641.75;;;3.76;68.14
39491;BME280;25175;50.140;18.990;2023-04-08T00:26:11;98652.28;;;3.74;67.83
39491;BME280;25175;50.140;18.990;2023-04-08T00:29:17;98645.78;;;3.70;67.65
39491;BME280;25175;50.140;18.990;2023-04-08T00:32:22;98657.78;;;3.71;67.81
39491;BME280;25175;50.140;18.990;2023-04-08T00:35:27;98656.31;;;3.69;67.71
39491;BME280;25175;50.140;18.990;2023-04-08T00:38:35;98650.84;;;3.64;67.89
39491;BME280;25175;50.140;18.990;2023-04-08T00:41:40;98657.44;;;3.66;67.87
39491;BME280;25175;50.140;18.990;2023-04-08T00:44:45;98660.22;;;3.65;67.85
39491;BME280;25175;50.140;18.990;2023-04-08T00:47:49;98660.88;;;3.67;67.74
39491;BME280;25175;50.140;18.990;2023-04-08T00:50:55;98660.38;;;3.63;68.10
39491;BME280;25175;50.140;18.990;2023-04-08T00:54:03;98659.41;;;3.64;67.59
39491;BME280;25175;50.140;18.990;2023-04-08T00:57:08;98666.88;;;3.67;67.62
39491;BME280;25175;50.140;18.990;2023-04-08T01:00:14;98657.78;;;3.63;67.27
39491;BME280;25175;50.140;18.990;2023-04-08T01:03:28;98635.19;;;3.40;67.57
39491;BME280;25175;50.140;18.990;2023-04-08T01:06:50;98675.63;;;3.58;67.49
39491;BME280;25175;50.140;18.990;2023-04-08T01:10:12;98667.97;;;3.57;67.71
39491;BME280;25175;50.140;18.990;2023-04-08T01:13:22;98678.34;;;3.57;67.53
39491;BME280;25175;50.140;18.990;2023-04-08T01:16:33;98675.75;;;3.57;67.75
39491;BME280;25175;50.140;18.990;2023-04-08T01:19:40;98672.69;;;3.53;67.48
39491;BME280;25175;50.140;18.990;2023-04-08T01:23:02;98693.91;;;3.49;67.47
39491;BME280;25175;50.140;18.990;2023-04-08T01:26:24;98669.28;;;3.53;67.33
39491;BME280;25175;50.140;18.990;2023-04-08T01:29:31;98671.38;;;3.49;66.73
39491;BME280;25175;50.140;18.990;2023-04-08T01:32:43;98669.41;;;3.43;66.86
39491;BME280;25175;50.140;18.990;2023-04-08T01:35:50;98687.06;;;3.40;67.11
39491;BME280;25175;50.140;18.990;2023-04-08T01:38:59;98686.72;;;3.35;67.31
39491;BME280;25175;50.140;18.990;2023-04-08T01:42:10;98688.81;;;3.31;67.10
39491;BME280;25175;50.140;18.990;2023-04-08T01:45:19;98688.47;;;3.26;67.39
39491;BME280;25175;50.140;18.990;2023-04-08T01:48:26;98687.84;;;3.24;67.10
39491;BME280;25175;50.140;18.990;2023-04-08T01:51:33;98696.09;;;3.20;67.51
39491;BME280;25175;50.140;18.990;2023-04-08T01:54:40;98697.03;;;3.19;67.48
39491;BME280;25175;50.140;18.990;2023-04-08T01:57:51;98693.66;;;3.18;67.74
39491;BME280;25175;50.140;18.990;2023-04-08T02:00:58;98698.16;;;3.16;67.42
39491;BME280;25175;50.140;18.990;2023-04-08T02:04:04;98701.88;;;3.14;67.63
39491;BME280;25175;50.140;18.990;2023-04-08T02:07:11;98687.28;;;3.05;67.43
39491;BME280;25175;50.140;18.990;2023-04-08T02:10:16;98704.16;;;3.09;67.31
39491;BME280;25175;50.140;18.990;2023-04-08T02:13:23;98694.69;;;3.00;67.72
39491;BME280;25175;50.140;18.990;2023-04-08T02:16:34;98696.59;;;2.90;67.90
39491;BME280;25175;50.140;18.990;2023-04-08T02:19:51;98713.34;;;3.03;67.68
39491;BME280;25175;50.140;18.990;2023-04-08T02:23:08;98708.31;;;3.02;67.71
39491;BME280;25175;50.140;18.990;2023-04-08T02:26:17;98716.09;;;3.02;67.89
39491;BME280;25175;50.140;18.990;2023-04-08T02:29:30;98714.81;;;3.06;67.72
39491;BME280;25175;50.140;18.990;2023-04-08T02:32:38;98703.78;;;3.04;67.36
39491;BME280;25175;50.140;18.990;2023-04-08T02:35:44;98695.31;;;2.94;66.99
39491;BME280;25175;50.140;18.990;2023-04-08T02:38:50;98719.34;;;3.04;67.29
39491;BME280;25175;50.140;18.990;2023-04-08T02:41:55;98716.91;;;3.02;67.04
39491;BME280;25175;50.140;18.990;2023-04-08T02:45:03;98721.25;;;3.02;67.26
39491;BME280;25175;50.140;18.990;2023-04-08T02:48:09;98715.72;;;2.97;67.36
39491;BME280;25175;50.140;18.990;2023-04-08T02:51:14;98725.81;;;3.00;67.12
39491;BME280;25175;50.140;18.990;2023-04-08T02:54:19;98736.63;;;2.95;67.12
39491;BME280;25175;50.140;18.990;2023-04-08T02:57:24;98723.16;;;2.92;66.70
39491;BME280;25175;50.140;18.990;2023-04-08T03:00:32;98738.53;;;2.85;66.76
39491;BME280;25175;50.140;18.990;2023-04-08T03:03:37;98740.75;;;2.80;66.82
39491;BME280;25175;50.140;18.990;2023-04-08T03:06:42;98734.75;;;2.80;67.12
39491;BME280;25175;50.140;18.990;2023-04-08T03:09:46;98733.13;;;2.79;66.99
39491;BME280;25175;50.140;18.990;2023-04-08T03:12:51;98739.28;;;2.78;67.31
39491;BME280;25175;50.140;18.990;2023-04-08T03:15:58;98736.19;;;2.74;67.15
39491;BME280;25175;50.140;18.990;2023-04-08T03:19:03;98728.56;;;2.73;67.10
39491;BME280;25175;50.140;18.990;2023-04-08T03:22:08;98735.34;;;2.74;67.32
39491;BME280;25175;50.140;18.990;2023-04-08T03:25:13;98746.84;;;2.71;66.95
39491;BME280;25175;50.140;18.990;2023-04-08T03:28:17;98746.19;;;2.69;67.02
39491;BME280;25175;50.140;18.990;2023-04-08T03:31:25;98755.44;;;2.72;67.04
39491;BME280;25175;50.140;18.990;2023-04-08T03:34:30;98746.31;;;2.68;66.62
39491;BME280;25175;50.140;18.990;2023-04-08T03:37:37;98750.84;;;2.66;67.15
39491;BME280;25175;50.140;18.990;2023-04-08T03:40:41;98751.84;;;2.65;67.00
39491;BME280;25175;50.140;18.990;2023-04-08T03:43:46;98755.53;;;2.62;66.75
39491;BME280;25175;50.140;18.990;2023-04-08T03:46:53;98754.19;;;2.58;66.67
39491;BME280;25175;50.140;18.990;2023-04-08T03:49:58;98755.47;;;2.54;66.50
39491;BME280;25175;50.140;18.990;2023-04-08T03:53:03;98766.13;;;2.51;66.53
39491;BME280;25175;50.140;18.990;2023-04-08T03:56:11;98771.47;;;2.50;66.45
39491;BME280;25175;50.140;18.990;2023-04-08T03:59:16;98768.00;;;2.41;66.36
39491;BME280;25175;50.140;18.990;2023-04-08T04:02:24;98655.72;;;1.64;65.96
39491;BME280;25175;50.140;18.990;2023-04-08T04:05:28;98781.09;;;2.40;65.89
39491;BME280;25175;50.140;18.990;2023-04-08T04:08:33;98786.13;;;2.41;66.16
39491;BME280;25175;50.140;18.990;2023-04-08T04:11:37;98771.38;;;2.42;66.09
39491;BME280;25175;50.140;18.990;2023-04-08T04:14:43;98781.13;;;2.48;66.28
39491;BME280;25175;50.140;18.990;2023-04-08T04:17:49;98787.44;;;2.45;66.44
39491;BME280;25175;50.140;18.990;2023-04-08T04:20:55;98790.59;;;2.57;66.14
39491;BME280;25175;50.140;18.990;2023-04-08T04:23:59;98793.84;;;2.59;65.86
39491;BME280;25175;50.140;18.990;2023-04-08T04:27:04;98798.09;;;2.60;66.10
39491;BME280;25175;50.140;18.990;2023-04-08T04:30:09;98802.00;;;2.64;65.77
39491;BME280;25175;50.140;18.990;2023-04-08T04:33:18;98793.28;;;2.65;65.71
39491;BME280;25175;50.140;18.990;2023-04-08T04:36:23;98801.34;;;2.62;65.56
39491;BME280;25175;50.140;18.990;2023-04-08T04:39:28;98801.94;;;2.56;65.58
39491;BME280;25175;50.140;18.990;2023-04-08T04:42:32;98802.53;;;2.50;65.34
39491;BME280;25175;50.140;18.990;2023-04-08T04:45:37;98731.41;;;2.01;65.74
39491;BME280;25175;50.140;18.990;2023-04-08T04:48:44;98804.75;;;2.45;65.92
39491;BME280;25175;50.140;18.990;2023-04-08T04:51:49;98822.22;;;2.43;65.65
39491;BME280;25175;50.140;18.990;2023-04-08T04:54:55;98814.50;;;2.33;65.97
39491;BME280;25175;50.140;18.990;2023-04-08T04:58:01;98822.97;;;2.35;66.17
39491;BME280;25175;50.140;18.990;2023-04-08T05:01:05;98824.06;;;2.33;66.07
39491;BME280;25175;50.140;18.990;2023-04-08T05:04:13;98824.72;;;2.35;66.20
39491;BME280;25175;50.140;18.990;2023-04-08T05:07:17;98802.63;;;2.23;66.21
39491;BME280;25175;50.140;18.990;2023-04-08T05:10:22;98832.81;;;2.32;66.10
39491;BME280;25175;50.140;18.990;2023-04-08T05:13:27;98829.25;;;2.33;66.67
39491;BME280;25175;50.140;18.990;2023-04-08T05:16:32;98842.56;;;2.38;66.47
39491;BME280;25175;50.140;18.990;2023-04-08T05:19:39;98833.53;;;2.42;66.47
39491;BME280;25175;50.140;18.990;2023-04-08T05:22:44;98834.34;;;2.42;66.11
39491;BME280;25175;50.140;18.990;2023-04-08T05:25:48;98838.09;;;2.48;66.28
39491;BME280;25175;50.140;18.990;2023-04-08T05:28:53;98837.81;;;2.51;66.65
39491;BME280;25175;50.140;18.990;2023-04-08T05:31:58;98853.88;;;2.54;66.39
39491;BME280;25175;50.140;18.990;2023-04-08T05:35:06;98850.03;;;2.58;66.40
39491;BME280;25175;50.140;18.990;2023-04-08T05:38:12;98851.06;;;2.65;66.53
39491;BME280;25175;50.140;18.990;2023-04-08T05:41:17;98854.03;;;2.70;66.51
39491;BME280;25175;50.140;18.990;2023-04-08T05:44:21;98862.31;;;2.74;66.28
39491;BME280;25175;50.140;18.990;2023-04-08T05:47:26;98862.16;;;2.75;66.40
39491;BME280;25175;50.140;18.990;2023-04-08T05:50:34;98869.94;;;2.75;66.11
39491;BME280;25175;50.140;18.990;2023-04-08T05:53:39;98875.25;;;2.74;66.34
39491;BME280;25175;50.140;18.990;2023-04-08T05:56:43;98885.63;;;2.74;66.22
39491;BME280;25175;50.140;18.990;2023-04-08T05:59:49;98884.50;;;2.76;66.30
39491;BME280;25175;50.140;18.990;2023-04-08T06:02:53;98880.31;;;2.75;65.83
39491;BME280;25175;50.140;18.990;2023-04-08T06:06:01;98880.81;;;2.79;66.39
39491;BME280;25175;50.140;18.990;2023-04-08T06:09:05;98889.09;;;2.82;66.29
39491;BME280;25175;50.140;18.990;2023-04-08T06:12:11;98885.53;;;2.83;66.39
39491;BME280;25175;50.140;18.990;2023-04-08T06:15:15;98898.22;;;2.86;66.65
39491;BME280;25175;50.140;18.990;2023-04-08T06:18:20;98899.38;;;2.92;65.81
39491;BME280;25175;50.140;18.990;2023-04-08T06:21:27;98898.13;;;2.96;65.81
39491;BME280;25175;50.140;18.990;2023-04-08T06:24:32;98891.19;;;2.96;65.30
39491;BME280;25175;50.140;18.990;2023-04-08T06:27:37;98892.34;;;3.02;65.72
39491;BME280;25175;50.140;18.990;2023-04-08T06:30:42;98895.81;;;3.10;65.85
39491;BME280;25175;50.140;18.990;2023-04-08T06:33:46;98893.72;;;3.14;66.12
39491;BME280;25175;50.140;18.990;2023-04-08T06:36:55;98909.41;;;3.30;66.36
39491;BME280;25175;50.140;18.990;2023-04-08T06:40:00;98906.19;;;3.36;64.70
39491;BME280;25175;50.140;18.990;2023-04-08T06:43:05;98906.06;;;3.37;64.72
39491;BME280;25175;50.140;18.990;2023-04-08T06:46:13;98907.69;;;3.38;63.60
39491;BME280;25175;50.140;18.990;2023-04-08T06:49:18;98913.19;;;3.35;64.22
39491;BME280;25175;50.140;18.990;2023-04-08T06:52:25;98930.59;;;3.43;64.57
39491;BME280;25175;50.140;18.990;2023-04-08T06:55:30;98938.72;;;3.48;64.75
39491;BME280;25175;50.140;18.990;2023-04-08T06:58:35;98931.75;;;3.48;64.34
39491;BME280;25175;50.140;18.990;2023-04-08T07:01:40;98926.44;;;3.58;64.72
39491;BME280;25175;50.140;18.990;2023-04-08T07:04:44;98933.31;;;3.67;65.29
39491;BME280;25175;50.140;18.990;2023-04-08T07:07:53;98934.84;;;3.77;64.49
39491;BME280;25175;50.140;18.990;2023-04-08T07:10:58;98938.34;;;3.86;64.39
39491;BME280;25175;50.140;18.990;2023-04-08T07:14:03;98923.91;;;3.91;64.06
39491;BME280;25175;50.140;18.990;2023-04-08T07:17:07;98938.25;;;4.03;63.29
39491;BME280;25175;50.140;18.990;2023-04-08T07:20:12;98936.66;;;4.10;62.89
39491;BME280;25175;50.140;18.990;2023-04-08T07:23:20;98930.19;;;4.14;63.14
39491;BME280;25175;50.140;18.990;2023-04-08T07:26:25;98939.50;;;4.33;62.71
39491;BME280;25175;50.140;18.990;2023-04-08T07:29:30;98951.25;;;4.45;62.45
39491;BME280;25175;50.140;18.990;2023-04-08T07:32:35;98958.25;;;4.52;60.62
39491;BME280;25175;50.140;18.990;2023-04-08T07:35:40;98954.19;;;4.50;60.75
39491;BME280;25175;50.140;18.990;2023-04-08T07:38:48;98960.38;;;4.57;61.16
39491;BME280;25175;50.140;18.990;2023-04-08T07:41:52;98956.81;;;4.66;61.49
39491;BME280;25175;50.140;18.990;2023-04-08T07:44:58;98956.38;;;4.78;61.48
39491;BME280;25175;50.140;18.990;2023-04-08T07:48:02;98957.38;;;4.93;61.41
39491;BME280;25175;50.140;18.990;2023-04-08T07:51:09;98909.72;;;4.77;60.84
39491;BME280;25175;50.140;18.990;2023-04-08T07:54:17;98951.38;;;5.17;60.83
39491;BME280;25175;50.140;18.990;2023-04-08T07:57:22;98954.78;;;5.33;60.10
39491;BME280;25175;50.140;18.990;2023-04-08T08:00:26;98953.78;;;5.42;59.23
39491;BME280;25175;50.140;18.990;2023-04-08T08:03:32;98965.19;;;5.49;59.24
39491;BME280;25175;50.140;18.990;2023-04-08T08:06:36;98953.16;;;5.56;57.79
39491;BME280;25175;50.140;18.990;2023-04-08T08:09:44;98963.88;;;5.69;57.95
39491;BME280;25175;50.140;18.990;2023-04-08T08:12:49;98964.69;;;5.78;57.28
39491;BME280;25175;50.140;18.990;2023-04-08T08:15:54;98966.31;;;5.87;57.32
39491;BME280;25175;50.140;18.990;2023-04-08T08:18:58;98956.88;;;5.86;57.53
39491;BME280;25175;50.140;18.990;2023-04-08T08:22:05;98968.69;;;6.12;56.71
39491;BME280;25175;50.140;18.990;2023-04-08T08:25:12;98970.28;;;6.21;56.17
39491;BME280;25175;50.140;18.990;2023-04-08T08:28:17;98959.03;;;6.29;56.12
39491;BME280;25175;50.140;18.990;2023-04-08T08:31:21;98963.66;;;6.41;55.92
39491;BME280;25175;50.140;18.990;2023-04-08T08:34:26;98964.75;;;6.55;56.77
39491;BME280;25175;50.140;18.990;2023-04-08T08:37:31;98969.59;;;6.66;55.84
39491;BME280;25175;50.140;18.990;2023-04-08T08:40:39;98961.25;;;6.70;54.94
39491;BME280;25175;50.140;18.990;2023-04-08T08:43:43;98973.25;;;6.79;55.65
39491;BME280;25175;50.140;18.990;2023-04-08T08:46:49;98963.25;;;6.91;55.14
39491;BME280;25175;50.140;18.990;2023-04-08T08:49:53;98973.91;;;7.04;54.94
39491;BME280;25175;50.140;18.990;2023-04-08T08:52:59;98978.56;;;7.16;54.16
39491;BME280;25175;50.140;18.990;2023-04-08T08:56:08;98981.97;;;7.25;53.98
39491;BME280;25175;50.140;18.990;2023-04-08T08:59:13;98941.56;;;7.13;54.36
39491;BME280;25175;50.140;18.990;2023-04-08T09:02:25;98962.19;;;7.30;54.96
39491;BME280;25175;50.140;18.990;2023-04-08T09:05:46;98960.31;;;7.39;53.16
39491;BME280;25175;50.140;18.990;2023-04-08T09:08:52;99003.34;;;7.65;53.28
39491;BME280;25175;50.140;18.990;2023-04-08T09:12:04;98995.53;;;7.80;53.57
39491;BME280;25175;50.140;18.990;2023-04-08T09:15:09;98995.03;;;7.99;54.31
39491;BME280;25175;50.140;18.990;2023-04-08T09:18:21;99005.28;;;8.15;52.04
39491;BME280;25175;50.140;18.990;2023-04-08T09:21:26;98990.81;;;8.27;52.27
39491;BME280;25175;50.140;18.990;2023-04-08T09:24:32;98992.88;;;8.31;51.50
39491;BME280;25175;50.140;18.990;2023-04-08T09:27:40;98996.47;;;8.45;53.05
39491;BME280;25175;50.140;18.990;2023-04-08T09:30:45;99009.13;;;8.56;51.66
39491;BME280;25175;50.140;18.990;2023-04-08T09:33:52;99006.66;;;8.69;50.60
39491;BME280;25175;50.140;18.990;2023-04-08T09:36:59;99004.88;;;8.69;48.62
39491;BME280;25175;50.140;18.990;2023-04-08T09:40:04;99008.28;;;8.70;49.30
39491;BME280;25175;50.140;18.990;2023-04-08T09:43:19;99004.22;;;8.82;49.55
39491;BME280;25175;50.140;18.990;2023-04-08T09:46:32;98996.94;;;8.98;49.36
39491;BME280;25175;50.140;18.990;2023-04-08T09:49:47;99010.66;;;9.21;50.42
39491;BME280;25175;50.140;18.990;2023-04-08T09:53:01;99002.03;;;9.42;49.33
39491;BME280;25175;50.140;18.990;2023-04-08T09:56:16;99002.88;;;9.49;47.66
39491;BME280;25175;50.140;18.990;2023-04-08T09:59:29;99005.31;;;9.50;47.97
39491;BME280;25175;50.140;18.990;2023-04-08T10:02:48;98987.09;;;9.42;46.88
39491;BME280;25175;50.140;18.990;2023-04-08T10:06:01;99005.03;;;9.66;48.56
39491;BME280;25175;50.140;18.990;2023-04-08T10:09:10;99008.66;;;9.65;45.67
39491;BME280;25175;50.140;18.990;2023-04-08T10:12:15;99013.47;;;9.41;45.88
39491;BME280;25175;50.140;18.990;2023-04-08T10:15:30;99007.31;;;9.27;45.80
39491;BME280;25175;50.140;18.990;2023-04-08T10:18:36;99019.59;;;9.27;46.02
39491;BME280;25175;50.140;18.990;2023-04-08T10:21:41;99026.03;;;9.24;46.53
39491;BME280;25175;50.140;18.990;2023-04-08T10:28:32;99009.63;;;9.37;46.26
39491;BME280;25175;50.140;18.990;2023-04-08T10:31:41;99004.00;;;9.40;46.09
39491;BME280;25175;50.140;18.990;2023-04-08T10:34:51;99024.88;;;9.54;44.37
39491;BME280;25175;50.140;18.990;2023-04-08T10:37:56;99012.53;;;9.69;45.67
39491;BME280;25175;50.140;18.990;2023-04-08T10:41:02;99004.00;;;9.82;45.89
39491;BME280;25175;50.140;18.990;2023-04-08T10:44:14;99011.00;;;10.02;45.44
39491;BME280;25175;50.140;18.990;2023-04-08T10:47:27;99018.00;;;10.23;45.25
39491;BME280;25175;50.140;18.990;2023-04-08T10:50:32;99007.19;;;10.39;43.54
39491;BME280;25175;50.140;18.990;2023-04-08T10:53:38;99009.44;;;10.48;43.38
39491;BME280;25175;50.140;18.990;2023-04-08T10:56:44;99000.25;;;10.65;44.32
39491;BME280;25175;50.140;18.990;2023-04-08T10:59:51;99003.94;;;10.84;43.58
39491;BME280;25175;50.140;18.990;2023-04-08T11:02:59;99001.00;;;11.00;44.22
39491;BME280;25175;50.140;18.990;2023-04-08T11:06:05;98999.22;;;11.13;43.93
39491;BME280;25175;50.140;18.990;2023-04-08T11:09:10;98999.69;;;11.30;44.27
39491;BME280;25175;50.140;18.990;2023-04-08T11:12:16;98905.00;;;10.78;43.32
39491;BME280;25175;50.140;18.990;2023-04-08T11:15:24;98996.84;;;11.31;43.20
39491;BME280;25175;50.140;18.990;2023-04-08T11:18:33;99002.03;;;10.99;42.86
39491;BME280;25175;50.140;18.990;2023-04-08T11:21:38;98998.84;;;10.63;43.23
39491;BME280;25175;50.140;18.990;2023-04-08T11:24:44;98996.69;;;10.39;44.76
39491;BME280;25175;50.140;18.990;2023-04-08T11:27:49;98988.94;;;10.24;45.89
39491;BME280;25175;50.140;18.990;2023-04-08T11:30:57;98996.00;;;10.24;45.25
39491;BME280;25175;50.140;18.990;2023-04-08T11:34:06;99003.88;;;10.24;45.21
39491;BME280;25175;50.140;18.990;2023-04-08T11:37:14;99002.47;;;10.28;44.73
39491;BME280;25175;50.140;18.990;2023-04-08T11:40:23;99003.88;;;10.24;44.13
39491;BME280;25175;50.140;18.990;2023-04-08T11:43:29;99019.41;;;10.19;45.04
39491;BME280;25175;50.140;18.990;2023-04-08T11:46:34;99006.03;;;10.14;44.98
39491;BME280;25175;50.140;18.990;2023-04-08T11:49:47;99000.56;;;10.09;45.17
39491;BME280;25175;50.140;18.990;2023-04-08T11:52:52;99005.94;;;10.01;45.40
39491;BME280;25175;50.140;18.990;2023-04-08T11:56:13;99006.56;;;10.03;45.22
39491;BME280;25175;50.140;18.990;2023-04-08T11:59:18;99013.91;;;10.14;45.45
39491;BME280;25175;50.140;18.990;2023-04-08T12:02:24;99002.00;;;10.11;45.53
39491;BME280;25175;50.140;18.990;2023-04-08T12:05:31;99010.03;;;10.10;45.26
39491;BME280;25175;50.140;18.990;2023-04-08T12:08:38;99001.56;;;10.08;45.44
39491;BME280;25175;50.140;18.990;2023-04-08T12:11:43;99007.59;;;10.08;45.15
39491;BME280;25175;50.140;18.990;2023-04-08T12:14:49;99009.09;;;9.90;44.57
39491;BME280;25175;50.140;18.990;2023-04-08T12:17:53;99005.78;;;9.81;45.12
39491;BME280;25175;50.140;18.990;2023-04-08T12:21:01;99006.09;;;9.72;44.97
39491;BME280;25175;50.140;18.990;2023-04-08T12:24:06;98982.94;;;9.48;44.75
39491;BME280;25175;50.140;18.990;2023-04-08T12:27:11;98981.38;;;9.32;45.40
39491;BME280;25175;50.140;18.990;2023-04-08T12:30:16;99023.78;;;9.42;45.94
39491;BME280;25175;50.140;18.990;2023-04-08T12:33:21;99028.16;;;9.35;46.30
39491;BME280;25175;50.140;18.990;2023-04-08T12:36:28;99031.25;;;9.24;46.74
39491;BME280;25175;50.140;18.990;2023-04-08T12:39:34;99019.44;;;9.14;46.58
39491;BME280;25175;50.140;18.990;2023-04-08T12:42:40;99015.09;;;9.00;46.68
39491;BME280;25175;50.140;18.990;2023-04-08T12:45:45;99014.72;;;8.88;46.97
39491;BME280;25175;50.140;18.990;2023-04-08T12:48:50;99028.13;;;8.79;47.56
39491;BME280;25175;50.140;18.990;2023-04-08T12:51:58;99032.09;;;8.75;48.20
39491;BME280;25175;50.140;18.990;2023-04-08T12:55:02;99026.84;;;8.75;48.34
39491;BME280;25175;50.140;18.990;2023-04-08T12:58:08;99021.13;;;8.65;48.41
39491;BME280;25175;50.140;18.990;2023-04-08T13:01:13;99033.91;;;8.74;48.86
39491;BME280;25175;50.140;18.990;2023-04-08T13:04:18;99036.34;;;8.76;48.59
39491;BME280;25175;50.140;18.990;2023-04-08T13:07:25;99034.97;;;8.80;49.06
39491;BME280;25175;50.140;18.990;2023-04-08T13:10:31;99030.38;;;8.82;49.78
39491;BME280;25175;50.140;18.990;2023-04-08T13:13:36;99035.63;;;8.82;49.89
39491;BME280;25175;50.140;18.990;2023-04-08T13:16:41;99043.19;;;8.77;49.61
39491;BME280;25175;50.140;18.990;2023-04-08T13:19:46;99033.38;;;8.64;49.77
39491;BME280;25175;50.140;18.990;2023-04-08T13:22:54;99035.38;;;8.62;50.87
39491;BME280;25175;50.140;18.990;2023-04-08T13:26:00;99045.63;;;8.64;50.81
39491;BME280;25175;50.140;18.990;2023-04-08T13:29:06;99038.16;;;8.61;50.67
39491;BME280;25175;50.140;18.990;2023-04-08T13:32:11;99036.41;;;8.53;50.70
39491;BME280;25175;50.140;18.990;2023-04-08T13:35:16;99026.97;;;8.38;51.41
39491;BME280;25175;50.140;18.990;2023-04-08T13:38:31;99034.34;;;8.34;51.41
39491;BME280;25175;50.140;18.990;2023-04-08T13:41:39;99027.59;;;8.25;51.96
39491;BME280;25175;50.140;18.990;2023-04-08T13:44:45;99042.44;;;8.25;52.25
39491;BME280;25175;50.140;18.990;2023-04-08T13:47:50;99041.88;;;8.15;52.99
39491;BME280;25175;50.140;18.990;2023-04-08T13:50:55;98902.63;;;7.34;53.26
39491;BME280;25175;50.140;18.990;2023-04-08T13:54:03;99041.09;;;8.14;53.15
39491;BME280;25175;50.140;18.990;2023-04-08T13:57:16;99039.53;;;8.05;53.40
39491;BME280;25175;50.140;18.990;2023-04-08T14:00:22;99032.25;;;8.01;53.76
39491;BME280;25175;50.140;18.990;2023-04-08T14:03:28;99032.97;;;7.95;53.75
39491;BME280;25175;50.140;18.990;2023-04-08T14:06:33;99031.50;;;7.92;54.22
39491;BME280;25175;50.140;18.990;2023-04-08T14:09:40;99031.50;;;7.92;53.97
39491;BME280;25175;50.140;18.990;2023-04-08T14:12:45;99030.59;;;7.85;54.11
39491;BME280;25175;50.140;18.990;2023-04-08T14:15:50;99038.25;;;7.87;54.62
39491;BME280;25175;50.140;18.990;2023-04-08T14:18:57;99039.88;;;7.88;54.36
39491;BME280;25175;50.140;18.990;2023-04-08T14:22:01;99032.38;;;7.85;54.68
39491;BME280;25175;50.140;18.990;2023-04-08T14:25:10;99039.06;;;7.87;54.54
39491;BME280;25175;50.140;18.990;2023-04-08T14:28:15;99029.59;;;7.86;54.71
39491;BME280;25175;50.140;18.990;2023-04-08T14:31:20;99003.53;;;7.78;54.83
39491;BME280;25175;50.140;18.990;2023-04-08T14:34:24;99001.22;;;7.83;54.90
39491;BME280;25175;50.140;18.990;2023-04-08T14:37:30;99020.34;;;7.98;54.17
39491;BME280;25175;50.140;18.990;2023-04-08T14:40:37;99013.09;;;7.86;54.27
39491;BME280;25175;50.140;18.990;2023-04-08T14:43:42;99020.88;;;7.94;54.49
39491;BME280;25175;50.140;18.990;2023-04-08T14:46:47;99033.41;;;7.98;54.38
39491;BME280;25175;50.140;18.990;2023-04-08T14:49:52;99038.47;;;8.00;54.63
39491;BME280;25175;50.140;18.990;2023-04-08T14:52:57;99037.09;;;8.04;54.89
39491;BME280;25175;50.140;18.990;2023-04-08T14:56:07;99034.03;;;8.00;54.58
39491;BME280;25175;50.140;18.990;2023-04-08T14:59:11;99031.13;;;7.95;54.86
39491;BME280;25175;50.140;18.990;2023-04-08T15:02:17;99034.91;;;7.93;54.86
39491;BME280;25175;50.140;18.990;2023-04-08T15:05:21;99038.81;;;7.97;55.02
39491;BME280;25175;50.140;18.990;2023-04-08T15:08:26;99036.38;;;7.95;55.18
39491;BME280;25175;50.140;18.990;2023-04-08T15:11:33;99031.06;;;7.89;55.09
39491;BME280;25175;50.140;18.990;2023-04-08T15:14:39;99043.78;;;8.06;55.08
39491;BME280;25175;50.140;18.990;2023-04-08T15:17:43;99039.53;;;8.05;54.78
39491;BME280;25175;50.140;18.990;2023-04-08T15:20:50;99042.06;;;7.99;54.81
39491;BME280;25175;50.140;18.990;2023-04-08T15:23:54;99039.81;;;7.96;54.90
39491;BME280;25175;50.140;18.990;2023-04-08T15:27:02;99048.25;;;7.98;55.18
39491;BME280;25175;50.140;18.990;2023-04-08T15:30:07;99049.72;;;8.00;55.51
39491;BME280;25175;50.140;18.990;2023-04-08T15:33:13;99042.81;;;8.07;55.60
39491;BME280;25175;50.140;18.990;2023-04-08T15:36:19;99039.47;;;8.13;55.14
39491;BME280;25175;50.140;18.990;2023-04-08T15:39:24;99042.53;;;8.17;55.00
39491;BME280;25175;50.140;18.990;2023-04-08T15:42:31;99044.00;;;8.19;55.12
39491;BME280;25175;50.140;18.990;2023-04-08T15:45:41;99046.22;;;8.22;55.05
39491;BME280;25175;50.140;18.990;2023-04-08T15:48:47;99043.63;;;8.22;54.81
39491;BME280;25175;50.140;18.990;2023-04-08T15:51:53;99050.66;;;8.22;55.09
39491;BME280;25175;50.140;18.990;2023-04-08T15:54:57;99054.50;;;8.26;55.10
39491;BME280;25175;50.140;18.990;2023-04-08T15:58:08;99057.25;;;8.32;55.37
39491;BME280;25175;50.140;18.990;2023-04-08T16:01:13;99052.13;;;8.39;55.13
39491;BME280;25175;50.140;18.990;2023-04-08T16:04:19;99052.72;;;8.41;54.37
39491;BME280;25175;50.140;18.990;2023-04-08T16:07:24;99046.22;;;8.37;54.67
39491;BME280;25175;50.140;18.990;2023-04-08T16:10:29;99055.06;;;8.36;54.76
39491;BME280;25175;50.140;18.990;2023-04-08T16:13:36;99047.44;;;8.34;55.01
39491;BME280;25175;50.140;18.990;2023-04-08T16:16:43;99056.97;;;8.42;55.00
39491;BME280;25175;50.140;18.990;2023-04-08T16:19:49;99056.00;;;8.43;54.73
39491;BME280;25175;50.140;18.990;2023-04-08T16:22:55;99049.50;;;8.39;54.72
39491;BME280;25175;50.140;18.990;2023-04-08T16:26:02;99065.19;;;8.39;54.55
39491;BME280;25175;50.140;18.990;2023-04-08T16:29:11;99055.06;;;8.36;54.96
39491;BME280;25175;50.140;18.990;2023-04-08T16:32:16;99066.97;;;8.38;54.99